createdAt,value
2023-02-06T14:47:01.295Z,1.08
2023-02-06T14:49:48.280Z,1.05
2023-02-06T14:52:34.489Z,1.06
2023-02-06T14:55:32.711Z,1.02
2023-02-06T14:58:28.117Z,0.88
2023-02-06T15:01:27.772Z,0.92
2023-02-06T15:04:19.268Z,0.88
2023-02-06T15:07:05.026Z,0.89
2023-02-06T15:09:59.383Z,0.86
2023-02-06T15:12:54.027Z,0.84
2023-02-06T15:15:53.335Z,0.82
2023-02-06T15:18:38.499Z,0.77
2023-02-06T15:21:23.791Z,0.73
2023-02-06T15:24:23.681Z,0.74
2023-02-06T15:27:28.316Z,0.79
2023-02-06T15:30:28.364Z,0.80
2023-02-06T15:33:21.370Z,0.75
2023-02-06T15:36:07.954Z,0.68
2023-02-06T15:38:53.590Z,0.57
2023-02-06T15:41:42.417Z,0.49
2023-02-06T15:44:35.050Z,0.39
2023-02-06T15:47:21.362Z,0.38
2023-02-06T15:50:11.919Z,0.41
2023-02-06T15:52:57.347Z,0.50
2023-02-06T15:55:52.002Z,0.48
2023-02-06T15:58:37.841Z,0.41
2023-02-06T16:01:24.693Z,0.43
2023-02-06T16:04:24.161Z,0.40
2023-02-06T16:07:28.703Z,0.34
2023-02-06T16:10:24.937Z,0.28
2023-02-06T16:13:16.336Z,0.23
2023-02-06T16:16:04.042Z,0.31
2023-02-06T16:18:53.735Z,0.42
2023-02-06T16:21:42.090Z,0.43
2023-02-06T16:24:27.907Z,0.50
2023-02-06T16:27:20.356Z,0.44
2023-02-06T16:30:05.993Z,0.49
2023-02-06T16:32:54.677Z,0.44
2023-02-06T16:35:40.429Z,0.36
2023-02-06T16:38:25.835Z,0.23
2023-02-06T16:41:38.766Z,0.16
2023-02-06T16:44:36.127Z,0.14
2023-02-06T16:47:29.678Z,0.06
2023-02-06T16:50:21.840Z,-0.03
2023-02-06T16:53:19.098Z,-0.08
2023-02-06T16:56:14.217Z,-0.13
2023-02-06T16:58:59.548Z,-0.17
2023-02-06T17:01:44.757Z,-0.22
2023-02-06T17:04:30.409Z,-0.24
2023-02-06T17:07:19.404Z,-0.29
2023-02-06T17:10:05.965Z,-0.34
2023-02-06T17:12:52.199Z,-0.32
2023-02-06T17:15:39.225Z,-0.33
2023-02-06T17:18:24.399Z,-0.32
2023-02-06T17:21:13.846Z,-0.32
2023-02-06T17:24:02.491Z,-0.34
2023-02-06T17:26:51.014Z,-0.35
2023-02-06T17:29:36.565Z,-0.33
2023-02-06T17:32:22.864Z,-0.33
2023-02-06T17:35:09.395Z,-0.33
2023-02-06T17:37:54.875Z,-0.31
2023-02-06T17:40:41.326Z,-0.33
2023-02-06T17:43:26.891Z,-0.32
2023-02-06T17:46:13.184Z,-0.36
2023-02-06T17:48:58.828Z,-0.36
2023-02-06T17:51:45.139Z,-0.33
2023-02-06T17:54:30.271Z,-0.31
2023-02-06T17:57:15.412Z,-0.25
2023-02-06T18:00:00.983Z,-0.26
2023-02-06T18:02:46.168Z,-0.27
2023-02-06T18:05:31.942Z,-0.27
2023-02-06T18:08:18.271Z,-0.27
2023-02-06T18:11:15.170Z,-0.29
2023-02-06T18:14:00.574Z,-0.26
2023-02-06T18:16:47.051Z,-0.23
2023-02-06T18:19:40.584Z,-0.18
2023-02-06T18:22:26.396Z,-0.13
2023-02-06T18:25:14.706Z,-0.15
2023-02-06T18:28:00.251Z,-0.16
2023-02-06T18:30:46.834Z,-0.20
2023-02-06T18:33:35.110Z,-0.19
2023-02-06T18:36:21.397Z,-0.17
2023-02-06T18:39:07.465Z,-0.17
2023-02-06T18:42:11.645Z,-0.18
2023-02-06T18:44:56.733Z,-0.14
2023-02-06T18:47:42.373Z,-0.07
2023-02-06T18:50:28.020Z,-0.02
2023-02-06T18:53:13.395Z,0.00
2023-02-06T18:56:00.591Z,0.05
2023-02-06T18:58:46.391Z,0.07
2023-02-06T19:01:32.687Z,0.09
2023-02-06T19:04:19.090Z,0.10
2023-02-06T19:07:04.220Z,0.11
2023-02-06T19:09:49.597Z,0.09
2023-02-06T19:12:35.004Z,0.10
2023-02-06T19:15:20.415Z,0.11
2023-02-06T19:18:06.046Z,0.09
2023-02-06T19:20:51.378Z,0.06
2023-02-06T19:23:38.171Z,0.04
2023-02-06T19:26:23.982Z,0.05
2023-02-06T19:29:11.157Z,0.04
2023-02-06T19:31:56.490Z,0.06
2023-02-06T19:34:42.133Z,0.09
2023-02-06T19:37:27.669Z,0.06
2023-02-06T19:40:13.143Z,-0.02
2023-02-06T19:42:58.656Z,-0.05
2023-02-06T19:45:44.031Z,-0.08
2023-02-06T19:48:29.431Z,-0.04
2023-02-06T19:51:20.745Z,-0.08
2023-02-06T19:54:06.457Z,-0.18
2023-02-06T19:56:51.997Z,-0.21
2023-02-06T19:59:37.058Z,-0.22
2023-02-06T20:02:22.758Z,-0.20
2023-02-06T20:05:08.500Z,-0.13
2023-02-06T20:07:53.940Z,-0.13
2023-02-06T20:10:39.297Z,-0.20
2023-02-06T20:13:24.601Z,-0.28
2023-02-06T20:16:17.285Z,-0.27
2023-02-06T20:19:15.392Z,-0.26
2023-02-06T20:22:01.262Z,0.15
2023-02-06T20:24:46.654Z,0.20
2023-02-06T20:27:31.769Z,0.19
2023-02-06T20:30:18.728Z,0.18
2023-02-06T20:33:04.434Z,0.04
2023-02-06T20:35:49.571Z,-0.05
2023-02-06T20:38:35.683Z,-0.13
2023-02-06T20:41:23.582Z,-0.14
2023-02-06T20:44:10.834Z,-0.25
2023-02-06T20:46:56.167Z,-0.35
2023-02-06T20:49:41.966Z,-0.38
2023-02-06T20:52:27.483Z,-0.36
2023-02-06T20:55:12.651Z,-0.33
2023-02-06T20:57:58.121Z,-0.29
2023-02-06T21:00:43.500Z,-0.27
2023-02-06T21:03:28.501Z,-0.25
2023-02-06T21:06:14.697Z,-0.20
2023-02-06T21:09:01.084Z,-0.15
2023-02-06T21:11:49.173Z,-0.14
2023-02-06T21:14:34.509Z,-0.12
2023-02-06T21:17:19.965Z,-0.11
2023-02-06T21:20:06.493Z,-0.09
2023-02-06T21:22:52.804Z,-0.06
2023-02-06T21:25:38.894Z,-0.03
2023-02-06T21:28:24.377Z,-0.02
2023-02-06T21:31:14.389Z,-0.03
2023-02-06T21:34:21.455Z,-0.02
2023-02-06T21:37:06.654Z,-0.01
2023-02-06T21:39:52.177Z,0.00
2023-02-06T21:42:37.440Z,0.02
2023-02-06T21:45:22.794Z,0.04
2023-02-06T21:48:08.935Z,0.08
2023-02-06T21:50:54.596Z,0.12
2023-02-06T21:53:40.923Z,0.13
2023-02-06T21:56:27.740Z,0.14
2023-02-06T21:59:13.340Z,0.12
2023-02-06T22:01:58.672Z,0.13
2023-02-06T22:04:43.964Z,0.13
2023-02-06T22:07:28.990Z,0.09
2023-02-06T22:10:14.562Z,0.04
2023-02-06T22:12:59.819Z,-0.03
2023-02-06T22:15:49.761Z,-0.11
2023-02-06T22:18:35.549Z,-0.14
2023-02-06T22:21:22.997Z,-0.12
2023-02-06T22:24:10.493Z,-0.09
2023-02-06T22:26:56.180Z,-0.10
2023-02-06T22:29:41.522Z,-0.08
2023-02-06T22:32:27.186Z,-0.09
2023-02-06T22:35:13.973Z,-0.04
2023-02-06T22:37:59.809Z,0.10
2023-02-06T22:40:45.219Z,0.06
2023-02-06T22:43:31.959Z,0.02
2023-02-06T22:46:20.961Z,-0.01
2023-02-06T22:49:07.365Z,-0.03
2023-02-06T22:51:52.703Z,-0.03
2023-02-06T22:54:37.929Z,-0.05
2023-02-06T22:57:23.764Z,-0.04
2023-02-06T23:00:11.567Z,-0.06
2023-02-06T23:02:56.648Z,-0.06
2023-02-06T23:05:41.979Z,-0.02
2023-02-06T23:08:26.886Z,-0.01
2023-02-06T23:11:13.272Z,0.06
2023-02-06T23:14:02.349Z,0.08
2023-02-06T23:16:47.864Z,0.07
2023-02-06T23:19:33.444Z,0.06
2023-02-06T23:22:18.757Z,0.06
2023-02-06T23:25:04.286Z,-0.04
2023-02-06T23:27:49.515Z,-0.06
2023-02-06T23:30:34.961Z,-0.11
2023-02-06T23:33:21.326Z,-0.12
2023-02-06T23:36:10.757Z,-0.14
2023-02-06T23:38:56.405Z,-0.12
2023-02-06T23:41:41.986Z,-0.07
2023-02-06T23:44:27.709Z,-0.04
2023-02-06T23:47:12.794Z,-0.04
2023-02-06T23:49:58.294Z,-0.03
2023-02-06T23:52:43.999Z,-0.02
2023-02-06T23:55:30.567Z,-0.04
2023-02-06T23:58:16.047Z,-0.09
